Time;durP1;ratioP1;P1;durP2;ratioP2;P2;SDS_P1;SDS_P2;PMS_P1;PMS_P2;Temp;Humidity;BMP_temperature;BMP_pressure;BME280_temperature;BME280_humidity;BME280_pressure;Samples;Min_cycle;Max_cycle;Signal;HPM_P1;HPM_P2
2022/09/03 00:02:01;;;;;;;1.55;1.10;;;22.60;75.60;;;;;;4877298;29;20054;-86
2022/09/03 00:04:53;;;;;;;2.88;1.40;;;22.50;75.50;;;;;;4877173;29;20033;-85
2022/09/03 00:07:43;;;;;;;1.35;1.25;;;22.50;75.70;;;;;;4888383;29;20025;-85
2022/09/03 00:10:24;;;;;;;1.60;1.30;;;22.50;75.60;;;;;;4895635;29;20048;-86
2022/09/03 00:12:53;;;;;;;1.42;1.27;;;22.40;75.60;;;;;;4895854;29;20040;-85
2022/09/03 00:15:21;;;;;;;2.63;1.33;;;22.40;76.10;;;;;;4895637;29;20094;-86
2022/09/03 00:17:52;;;;;;;8.43;2.05;;;22.40;75.80;;;;;;4895837;29;20119;-86
2022/09/03 00:20:25;;;;;;;1.25;1.00;;;22.40;75.90;;;;;;4895696;29;20028;-85
2022/09/03 00:22:54;;;;;;;4.30;1.63;;;22.30;75.90;;;;;;4895642;29;20422;-85
2022/09/03 00:25:33;;;;;;;2.78;1.25;;;22.30;76.00;;;;;;4895404;29;20088;-86
2022/09/03 00:28:01;;;;;;;2.05;1.85;;;22.30;76.10;;;;;;4912105;29;20069;-85
2022/09/03 00:30:29;;;;;;;2.17;1.95;;;22.10;80.50;;;;;;4895219;29;20036;-86
2022/09/03 00:33:09;;;;;;;9.07;1.38;;;22.20;76.20;;;;;;4912190;29;20032;-86
2022/09/03 00:35:40;;;;;;;1.27;0.98;;;22.20;76.10;;;;;;4895385;29;20035;-86
2022/09/03 00:38:07;;;;;;;4.38;1.40;;;22.20;76.20;;;;;;4895393;29;20033;-86
2022/09/03 00:41:06;;;;;;;1.23;1.23;;;22.20;76.30;;;;;;4895293;29;20096;-85
2022/09/03 00:43:57;;;;;;;1.52;1.42;;;22.20;76.30;;;;;;4895224;29;20039;-86
2022/09/03 00:46:33;;;;;;;3.85;1.30;;;22.20;80.70;;;;;;4894943;29;20043;-86
2022/09/03 00:48:58;;;;;;;2.70;1.65;;;22.20;76.50;;;;;;4895221;29;20062;-85
2022/09/03 00:51:45;;;;;;;2.47;1.27;;;22.10;76.50;;;;;;4894859;29;20060;-85
2022/09/03 00:54:41;;;;;;;1.85;1.02;;;22.10;76.50;;;;;;4894904;29;20025;-86
2022/09/03 00:57:26;;;;;;;1.25;1.15;;;22.10;76.50;;;;;;4894587;29;20076;-85
2022/09/03 01:00:00;;;;;;;1.10;1.00;;;22.10;76.70;;;;;;4902420;29;20043;-85
2022/09/03 01:02:46;;;;;;;1.45;1.27;;;22.10;76.50;;;;;;4888406;29;20529;-85
2022/09/03 01:05:48;;;;;;;1.70;1.00;;;22.00;76.50;;;;;;4894687;29;20127;-85
2022/09/03 01:08:32;;;;;;;2.10;1.52;;;22.00;76.50;;;;;;4907938;29;20501;-85
2022/09/03 01:11:34;;;;;;;1.00;1.00;;;22.00;76.80;;;;;;4902402;29;20032;-86
2022/09/03 01:14:19;;;;;;;1.42;1.33;;;22.00;76.90;;;;;;4880980;29;20048;-85
2022/09/03 01:16:48;;;;;;;2.25;1.35;;;21.90;76.70;;;;;;4892522;29;20040;-85
2022/09/03 01:19:46;;;;;;;1.40;1.30;;;21.90;76.70;;;;;;4905970;29;20028;-85
2022/09/03 01:22:44;;;;;;;1.20;1.00;;;21.90;76.90;;;;;;4905982;29;20029;-85
2022/09/03 01:25:41;;;;;;;1.75;1.05;;;21.90;76.70;;;;;;4903645;29;20040;-85
2022/09/03 01:28:19;;;;;;;3.95;1.48;;;21.90;76.90;;;;;;4893188;29;20033;-85
2022/09/03 01:31:12;;;;;;;1.48;1.38;;;21.80;76.80;;;;;;4894488;29;20184;-86
2022/09/03 01:33:43;;;;;;;1.17;1.10;;;21.80;76.80;;;;;;4883118;29;20045;-86
2022/09/03 01:36:38;;;;;;;0.88;0.73;;;21.80;77.00;;;;;;4891657;29;20033;-85
2022/09/03 01:39:07;;;;;;;1.10;0.88;;;21.80;77.00;;;;;;4891048;29;20069;-85
2022/09/03 01:45:05;;;;;;;1.67;1.13;;;21.80;76.90;;;;;;4874077;29;20121;-85
2022/09/03 01:47:33;;;;;;;1.02;0.90;;;21.70;76.80;;;;;;4872677;29;20041;-85
2022/09/03 01:50:20;;;;;;;1.58;1.48;;;21.70;77.40;;;;;;4872528;29;20040;-86
2022/09/03 01:53:00;;;;;;;3.72;1.20;;;21.70;76.90;;;;;;4877502;29;20037;-85
2022/09/03 01:55:38;;;;;;;2.33;1.88;;;21.60;76.80;;;;;;4890764;29;20021;-85
2022/09/03 01:58:19;;;;;;;7.57;2.03;;;21.70;77.00;;;;;;4890814;29;20036;-85
2022/09/03 02:00:55;;;;;;;3.35;2.38;;;21.60;76.80;;;;;;4892216;29;20071;-86
2022/09/03 02:03:23;;;;;;;1.27;1.17;;;21.60;76.90;;;;;;4891073;29;20040;-85
2022/09/03 02:05:51;;;;;;;1.85;1.38;;;21.60;76.80;;;;;;4875532;29;20037;-85
2022/09/03 02:08:18;;;;;;;3.20;1.30;;;21.60;76.90;;;;;;4892246;29;20040;-85
2022/09/03 02:10:51;;;;;;;1.27;1.20;;;21.50;77.00;;;;;;4890364;29;20057;-85
2022/09/03 02:13:20;;;;;;;1.20;1.10;;;21.60;77.10;;;;;;4892058;29;20025;-85
2022/09/03 02:15:49;;;;;;;1.35;1.35;;;21.50;77.00;;;;;;4890405;29;20068;-86
2022/09/03 02:18:32;;;;;;;1.48;0.88;;;21.50;77.10;;;;;;4875184;29;20033;-85
2022/09/03 02:21:00;;;;;;;4.43;1.23;;;21.50;77.10;;;;;;4891345;29;20040;-85
2022/09/03 02:23:27;;;;;;;1.67;1.25;;;21.50;77.20;;;;;;4892434;29;20033;-85
2022/09/03 02:26:01;;;;;;;6.75;1.88;;;21.40;77.20;;;;;;4891896;29;20036;-85
2022/09/03 02:28:29;;;;;;;5.50;2.15;;;21.40;77.10;;;;;;4890829;29;20084;-85
2022/09/03 02:30:55;;;;;;;1.27;1.20;;;21.40;77.10;;;;;;4891817;29;20076;-85
2022/09/03 02:33:22;;;;;;;1.45;1.10;;;21.40;77.30;;;;;;4875455;29;20033;-85
2022/09/03 02:35:48;;;;;;;1.40;1.30;;;21.50;80.90;;;;;;4890383;29;20033;-85
2022/09/03 02:38:20;;;;;;;1.88;1.75;;;21.30;77.10;;;;;;4891997;29;20085;-85
2022/09/03 02:40:46;;;;;;;1.58;1.48;;;21.40;77.20;;;;;;4890724;29;20037;-85
2022/09/03 02:43:29;;;;;;;2.03;1.45;;;21.30;77.30;;;;;;4890242;29;20036;-86
2022/09/03 02:46:00;;;;;;;1.67;1.30;;;21.30;77.20;;;;;;4890504;29;20036;-85
2022/09/03 02:48:26;;;;;;;1.90;1.33;;;21.30;77.40;;;;;;4890635;29;20073;-85
2022/09/03 02:50:52;;;;;;;1.23;1.23;;;21.30;77.20;;;;;;4890396;29;20092;-85
2022/09/03 02:53:18;;;;;;;2.00;1.75;;;21.20;77.10;;;;;;4891468;29;20029;-85
2022/09/03 02:55:44;;;;;;;2.45;1.35;;;21.20;77.20;;;;;;4891536;29;20039;-85
2022/09/03 02:58:10;;;;;;;2.10;1.98;;;21.20;77.30;;;;;;4890473;29;20127;-85
2022/09/03 03:00:37;;;;;;;1.70;1.13;;;21.20;77.40;;;;;;4890382;29;20033;-85
2022/09/03 03:03:04;;;;;;;1.35;1.25;;;21.20;77.50;;;;;;4874683;29;20109;-85
2022/09/03 03:05:49;;;;;;;2.50;2.25;;;21.20;77.40;;;;;;4889817;29;20056;-85
2022/09/03 03:08:19;;;;;;;1.38;1.27;;;21.10;77.60;;;;;;4890396;29;20033;-85
2022/09/03 03:10:50;;;;;;;5.05;1.27;;;21.10;78.20;;;;;;4893798;29;20538;-85
2022/09/03 03:13:17;;;;;;;1.77;1.67;;;21.10;77.70;;;;;;4893695;29;20053;-85
2022/09/03 03:15:43;;;;;;;3.30;1.85;;;21.10;77.60;;;;;;4893694;29;20580;-85
2022/09/03 03:18:13;;;;;;;1.92;1.55;;;21.10;77.70;;;;;;4893631;29;20065;-85
2022/09/03 03:20:40;;;;;;;1.85;1.23;;;21.10;77.90;;;;;;4894784;29;20040;-85
2022/09/03 03:23:06;;;;;;;3.35;1.40;;;21.00;77.90;;;;;;4893371;29;20032;-85
2022/09/03 03:25:34;;;;;;;2.80;2.22;;;21.00;77.90;;;;;;4893628;29;20065;-85
2022/09/03 03:28:00;;;;;;;2.30;1.40;;;21.00;78.00;;;;;;4893437;29;20068;-85
2022/09/03 03:30:27;;;;;;;1.13;1.00;;;21.00;78.00;;;;;;4877667;29;20044;-85
2022/09/03 03:32:54;;;;;;;4.35;1.58;;;21.00;78.00;;;;;;4893615;29;20037;-85
2022/09/03 03:35:20;;;;;;;2.72;1.63;;;21.00;78.10;;;;;;4893715;29;20088;-85
2022/09/03 03:37:46;;;;;;;2.92;1.70;;;20.90;78.10;;;;;;4866504;29;20053;-85
2022/09/03 03:40:13;;;;;;;2.40;1.92;;;21.00;78.20;;;;;;4874548;29;20037;-85
2022/09/03 03:42:40;;;;;;;1.83;1.67;;;21.00;78.20;;;;;;4874607;29;20041;-85
2022/09/03 03:45:06;;;;;;;4.07;1.48;;;20.90;78.20;;;;;;4874470;29;20029;-85
2022/09/03 03:47:33;;;;;;;2.15;1.23;;;20.90;78.20;;;;;;4874555;29;20069;-85
2022/09/03 03:49:59;;;;;;;1.58;1.25;;;20.90;78.30;;;;;;4858974;29;20038;-85
2022/09/03 03:52:26;;;;;;;3.05;1.83;;;20.90;78.30;;;;;;4869509;29;20041;-84
2022/09/03 03:54:52;;;;;;;2.42;1.35;;;20.80;78.30;;;;;;4893179;29;20029;-85
2022/09/03 03:57:20;;;;;;;1.70;1.55;;;20.80;78.30;;;;;;4894165;29;20044;-85
2022/09/03 03:59:46;;;;;;;1.08;1.08;;;20.80;78.40;;;;;;4877346;29;20406;-84
2022/09/03 04:02:13;;;;;;;1.20;1.10;;;20.80;78.40;;;;;;4894232;29;20152;-85
2022/09/03 04:04:39;;;;;;;1.60;1.48;;;20.80;78.50;;;;;;4877126;29;20033;-85
2022/09/03 04:07:05;;;;;;;2.38;2.17;;;20.80;78.50;;;;;;4892694;29;20376;-85
2022/09/03 04:09:31;;;;;;;6.63;1.98;;;20.80;78.50;;;;;;4872846;29;20065;-85
2022/09/03 04:11:56;;;;;;;2.70;1.27;;;20.80;78.60;;;;;;4874027;29;20053;-85
2022/09/03 04:14:23;;;;;;;2.90;1.25;;;20.70;78.60;;;;;;4874002;29;20037;-84
2022/09/03 04:16:49;;;;;;;2.28;1.73;;;20.70;79.20;;;;;;4890609;29;20422;-85
2022/09/03 04:19:16;;;;;;;1.48;1.15;;;20.70;78.70;;;;;;4893227;29;20383;-85
2022/09/03 04:21:42;;;;;;;0.88;0.88;;;20.70;78.80;;;;;;4876969;29;20045;-85
2022/09/03 04:24:08;;;;;;;2.45;1.25;;;20.70;78.70;;;;;;4886161;29;20521;-85
2022/09/03 04:26:35;;;;;;;2.40;1.55;;;20.70;78.70;;;;;;4914485;29;20024;-85
2022/09/03 04:29:08;;;;;;;2.97;1.30;;;20.70;78.70;;;;;;4914357;29;20036;-85
2022/09/03 04:31:36;;;;;;;2.35;1.67;;;20.60;78.60;;;;;;4914193;29;20118;-85
2022/09/03 04:34:05;;;;;;;3.67;1.77;;;20.60;78.70;;;;;;4898470;29;20096;-85
2022/09/03 04:36:32;;;;;;;2.60;1.33;;;20.60;78.70;;;;;;4913900;29;20056;-85
2022/09/03 04:39:00;;;;;;;1.83;1.50;;;20.60;78.80;;;;;;4886629;29;20280;-85
2022/09/03 04:41:27;;;;;;;1.58;1.30;;;20.60;78.80;;;;;;4911881;29;20024;-85
2022/09/03 04:43:56;;;;;;;2.42;1.35;;;20.60;78.80;;;;;;4876440;29;20463;-84
2022/09/03 04:46:25;;;;;;;1.52;1.42;;;20.60;78.70;;;;;;4876776;29;20037;-85
2022/09/03 04:48:52;;;;;;;1.58;1.00;;;20.60;78.90;;;;;;4876319;29;20066;-85
2022/09/03 04:51:22;;;;;;;4.18;1.55;;;20.60;78.90;;;;;;4876306;29;20467;-85
2022/09/03 04:53:53;;;;;;;1.10;1.00;;;20.50;78.90;;;;;;4885226;29;20028;-86
2022/09/03 04:56:21;;;;;;;1.92;1.35;;;20.50;78.90;;;;;;4911861;29;20043;-85
2022/09/03 04:58:48;;;;;;;1.15;1.05;;;20.50;78.90;;;;;;4879361;29;20048;-85
2022/09/03 05:01:20;;;;;;;1.67;1.58;;;20.50;78.90;;;;;;4911735;29;20052;-85
2022/09/03 05:03:46;;;;;;;1.67;1.08;;;20.50;78.90;;;;;;4895040;29;20033;-85
2022/09/03 05:06:15;;;;;;;2.47;1.42;;;20.50;79.00;;;;;;4878878;29;20157;-84
2022/09/03 05:08:44;;;;;;;3.88;1.08;;;20.50;79.00;;;;;;4894678;29;20047;-85
2022/09/03 05:11:10;;;;;;;2.25;1.00;;;20.50;79.10;;;;;;4889740;29;20494;-84
2022/09/03 05:13:36;;;;;;;2.50;1.65;;;20.40;79.10;;;;;;4875277;29;20500;-85
2022/09/03 05:16:05;;;;;;;1.40;1.27;;;20.40;79.10;;;;;;4878220;29;20048;-85
2022/09/03 05:18:31;;;;;;;1.90;1.70;;;20.40;79.10;;;;;;4890164;29;20029;-85
2022/09/03 05:21:01;;;;;;;3.65;1.30;;;20.40;79.10;;;;;;4899192;29;20025;-85
2022/09/03 05:23:29;;;;;;;1.30;1.20;;;20.40;79.10;;;;;;4878859;29;20096;-85
2022/09/03 05:26:00;;;;;;;3.00;1.85;;;20.40;79.10;;;;;;4882389;29;20108;-85
2022/09/03 05:28:29;;;;;;;2.45;1.45;;;20.40;79.10;;;;;;4894093;29;20125;-85
2022/09/03 05:31:17;;;;;;;6.15;1.60;;;20.40;79.20;;;;;;4877872;29;20043;-85
2022/09/03 05:33:57;;;;;;;2.08;1.58;;;20.40;79.20;;;;;;4894171;29;20033;-85
2022/09/03 05:36:25;;;;;;;4.30;1.13;;;20.40;79.20;;;;;;4873649;29;20128;-85
2022/09/03 05:38:54;;;;;;;2.13;1.27;;;20.40;79.30;;;;;;4882760;29;20109;-85
2022/09/03 05:41:28;;;;;;;3.00;1.93;;;20.40;79.40;;;;;;4875667;29;20089;-85
2022/09/03 05:43:57;;;;;;;1.27;1.00;;;20.40;79.30;;;;;;4878129;29;20039;-85
2022/09/03 05:46:30;;;;;;;4.50;2.50;;;20.40;84.30;;;;;;4878721;29;20048;-86
2022/09/03 05:49:02;;;;;;;5.13;1.98;;;20.30;79.30;;;;;;4893565;29;20033;-86
2022/09/03 05:51:29;;;;;;;1.52;1.42;;;20.40;79.50;;;;;;4892311;29;20043;-87
2022/09/03 05:53:58;;;;;;;3.72;2.10;;;20.40;79.40;;;;;;4908318;29;20020;-86
2022/09/03 05:56:26;;;;;;;2.50;1.48;;;20.30;79.40;;;;;;4908202;29;20044;-85
2022/09/03 05:58:55;;;;;;;0.90;0.90;;;20.30;79.40;;;;;;4907361;29;20028;-85
2022/09/03 06:01:23;;;;;;;1.23;1.20;;;20.40;79.50;;;;;;4898731;29;20024;-86
2022/09/03 06:04:00;;;;;;;1.40;1.30;;;20.30;79.30;;;;;;4898229;29;20023;-86
2022/09/03 06:06:27;;;;;;;0.95;0.95;;;20.10;83.60;;;;;;4913726;29;20374;-85
2022/09/03 06:08:56;;;;;;;2.63;1.55;;;20.30;79.40;;;;;;4897443;29;20435;-85
2022/09/03 06:11:26;;;;;;;2.60;1.50;;;20.40;79.50;;;;;;4911918;29;20040;-85
2022/09/03 06:13:53;;;;;;;;;;;20.40;79.40;;;;;;4910262;29;20032;-86
2022/09/03 06:16:20;;;;;;;1.80;0.70;;;20.40;79.40;;;;;;4896407;29;19926;-86
2022/09/03 06:18:46;;;;;;;1.35;1.08;;;20.40;79.40;;;;;;4895154;29;20109;-86
2022/09/03 06:21:13;;;;;;;6.95;2.63;;;20.40;79.40;;;;;;4913080;29;20040;-85
2022/09/03 06:23:40;;;;;;;1.25;1.15;;;20.40;79.40;;;;;;4925102;29;20139;-86
2022/09/03 06:26:08;;;;;;;5.63;2.85;;;20.40;79.50;;;;;;4911947;29;20032;-85
2022/09/03 06:28:36;;;;;;;4.75;1.35;;;20.40;79.50;;;;;;4911950;29;20055;-85
2022/09/03 06:31:04;;;;;;;8.52;2.75;;;20.40;79.50;;;;;;4896191;29;20032;-85
2022/09/03 06:33:33;;;;;;;4.32;3.17;;;20.40;79.60;;;;;;4911846;29;20032;-85
2022/09/03 06:36:04;;;;;;;4.70;2.85;;;20.50;83.50;;;;;;4907675;29;20028;-85
2022/09/03 06:38:34;;;;;;;4.70;3.13;;;20.40;79.60;;;;;;4922583;29;20028;-85
2022/09/03 06:41:03;;;;;;;6.15;4.28;;;20.40;79.70;;;;;;4929255;29;20029;-85
2022/09/03 06:43:39;;;;;;;16.38;5.90;;;20.40;79.80;;;;;;4900026;29;20028;-86
2022/09/03 06:46:07;;;;;;;10.73;5.90;;;20.40;80.40;;;;;;4917490;29;20038;-86
2022/09/03 06:48:34;;;;;;;10.90;6.03;;;20.30;80.60;;;;;;4916470;29;20032;-87
2022/09/03 06:51:05;;;;;;;16.45;7.20;;;20.30;80.70;;;;;;4916102;29;20420;-85
2022/09/03 06:53:42;;;;;;;13.18;4.65;;;20.20;80.80;;;;;;4909935;29;20024;-86
2022/09/03 06:56:10;;;;;;;10.45;4.60;;;20.20;80.90;;;;;;4933073;29;20051;-86
2022/09/03 06:58:44;;;;;;;11.15;4.78;;;20.20;80.90;;;;;;4927905;29;20028;-86
2022/09/03 07:01:16;;;;;;;5.68;3.55;;;20.20;81.20;;;;;;4932560;29;20036;-86
2022/09/03 07:03:43;;;;;;;6.35;2.65;;;20.20;81.30;;;;;;4912696;29;20039;-86
2022/09/03 07:06:15;;;;;;;9.00;3.33;;;20.20;81.30;;;;;;4882977;29;20084;-86
2022/09/03 07:08:41;;;;;;;6.43;2.42;;;20.20;81.30;;;;;;4894176;29;20029;-86
2022/09/03 07:11:11;;;;;;;3.13;2.72;;;20.20;81.40;;;;;;4880467;29;20021;-86
2022/09/03 07:13:43;;;;;;;3.67;2.60;;;20.20;81.50;;;;;;4888629;29;20398;-86
2022/09/03 07:16:26;;;;;;;5.80;2.40;;;20.00;81.60;;;;;;4896881;29;20056;-86
2022/09/03 07:18:53;;;;;;;4.32;2.75;;;20.20;81.90;;;;;;4894802;29;20021;-86
2022/09/03 07:21:27;;;;;;;7.03;2.97;;;20.20;81.80;;;;;;4907594;29;20063;-86
2022/09/03 07:23:54;;;;;;;4.97;2.17;;;20.20;82.30;;;;;;4896351;29;20037;-85
2022/09/03 07:26:25;;;;;;;4.63;2.05;;;20.20;82.40;;;;;;4886873;29;20585;-86
2022/09/03 07:28:53;;;;;;;3.53;1.60;;;20.20;82.40;;;;;;4896196;29;20040;-85
2022/09/03 07:31:24;;;;;;;2.97;2.00;;;20.20;82.60;;;;;;4896242;29;20040;-86
2022/09/03 07:33:56;;;;;;;1.20;1.20;;;20.20;82.70;;;;;;4895966;29;20076;-86
2022/09/03 07:36:23;;;;;;;1.85;0.95;;;20.20;82.60;;;;;;4896097;29;20025;-85
2022/09/03 07:38:49;;;;;;;3.70;1.80;;;20.30;82.70;;;;;;4912962;29;20029;-85
2022/09/03 07:41:16;;;;;;;1.55;1.20;;;20.30;82.70;;;;;;4896281;29;20029;-85
2022/09/03 07:43:48;;;;;;;10.57;2.78;;;20.20;82.60;;;;;;4895817;29;20036;-85
2022/09/03 07:46:22;;;;;;;0.77;0.75;;;20.20;82.60;;;;;;4912822;29;20595;-85
2022/09/03 07:48:50;;;;;;;1.23;1.10;;;20.30;82.50;;;;;;4896516;29;20080;-85
2022/09/03 07:51:17;;;;;;;6.60;1.58;;;20.30;82.30;;;;;;4912952;29;20091;-85
2022/09/03 07:53:44;;;;;;;3.75;1.58;;;20.30;82.10;;;;;;4895674;29;20057;-85
2022/09/03 07:56:11;;;;;;;0.90;0.90;;;20.30;82.20;;;;;;4895671;29;20037;-85
2022/09/03 07:58:38;;;;;;;2.63;1.05;;;20.40;82.20;;;;;;4912856;29;20112;-85
2022/09/03 08:01:11;;;;;;;9.32;1.77;;;20.40;82.20;;;;;;4895698;29;20036;-85
2022/09/03 08:03:38;;;;;;;2.35;0.70;;;20.30;86.10;;;;;;4896141;29;20052;-85
2022/09/03 08:06:06;;;;;;;3.88;1.40;;;20.40;82.20;;;;;;4895923;29;20102;-85
2022/09/03 08:08:35;;;;;;;1.13;1.02;;;20.40;82.10;;;;;;4912683;29;20062;-86
2022/09/03 08:11:13;;;;;;;1.27;0.95;;;20.40;82.00;;;;;;4917227;29;20084;-84
2022/09/03 08:13:43;;;;;;;5.05;1.50;;;20.50;82.20;;;;;;4895175;29;20041;-85
2022/09/03 08:16:10;;;;;;;;;;;20.50;82.00;;;;;;4895680;29;20045;-85
2022/09/03 08:18:37;;;;;;;1.02;1.02;;;20.50;82.00;;;;;;4911256;29;19916;-85
2022/09/03 08:21:14;;;;;;;2.22;1.15;;;20.50;82.10;;;;;;4895517;29;20033;-86
2022/09/03 08:23:44;;;;;;;1.23;0.95;;;20.50;82.20;;;;;;4895086;29;20033;-86
2022/09/03 08:26:44;;;;;;;0.95;0.70;;;20.50;82.10;;;;;;4894879;29;20040;-86
2022/09/03 08:29:04;;;;;;;0.88;0.65;;;20.60;82.00;;;;;;4891409;29;20077;-85
2022/09/03 08:31:31;;;;;;;2.30;1.40;;;20.60;82.10;;;;;;4909305;29;20080;-85
2022/09/03 08:33:59;;;;;;;1.27;1.08;;;20.70;82.10;;;;;;4912541;29;20032;-84
2022/09/03 08:36:29;;;;;;;1.15;1.05;;;20.70;82.00;;;;;;4912175;29;20032;-83
2022/09/03 08:38:57;;;;;;;1.70;1.60;;;20.70;81.90;;;;;;4895503;29;20036;-83
2022/09/03 08:41:49;;;;;;;8.95;1.55;;;20.80;82.20;;;;;;4895289;29;20025;-84
2022/09/03 08:44:39;;;;;;;4.13;0.60;;;20.80;82.30;;;;;;4912074;29;20043;-84
2022/09/03 08:47:33;;;;;;;1.17;1.08;;;20.90;82.30;;;;;;4911830;29;20028;-85
2022/09/03 08:50:14;;;;;;;1.90;1.20;;;20.90;82.10;;;;;;4912134;29;20028;-85
2022/09/03 08:52:50;;;;;;;4.57;1.50;;;20.90;82.20;;;;;;4895343;29;20092;-85
2022/09/03 08:55:28;;;;;;;0.68;0.68;;;21.00;82.20;;;;;;4895063;29;20111;-85
2022/09/03 08:58:13;;;;;;;1.60;1.00;;;21.00;82.00;;;;;;4895009;29;20035;-84
2022/09/03 09:01:02;;;;;;;1.27;0.93;;;21.10;82.10;;;;;;4894954;29;20413;-85
2022/09/03 09:03:37;;;;;;;3.33;1.48;;;21.10;82.10;;;;;;4911480;29;20076;-85
2022/09/03 09:06:16;;;;;;;2.15;1.50;;;21.20;82.00;;;;;;4894968;29;20061;-85
2022/09/03 09:09:06;;;;;;;0.95;0.80;;;21.20;82.00;;;;;;4894672;29;20491;-84
2022/09/03 09:11:34;;;;;;;1.23;0.82;;;21.20;82.00;;;;;;4879287;29;20397;-84
2022/09/03 09:14:00;;;;;;;3.00;1.10;;;21.30;82.10;;;;;;4911893;29;20025;-85
2022/09/03 09:16:38;;;;;;;0.82;0.82;;;21.30;82.10;;;;;;4911268;29;20072;-84
2022/09/03 09:19:10;;;;;;;1.02;0.95;;;21.40;82.30;;;;;;4894557;29;20032;-85
2022/09/03 09:21:51;;;;;;;3.13;1.52;;;21.50;82.40;;;;;;4911512;29;20037;-85
2022/09/03 09:24:22;;;;;;;2.85;1.35;;;21.50;82.40;;;;;;4911364;29;20100;-85
2022/09/03 09:26:50;;;;;;;3.33;2.00;;;21.60;82.20;;;;;;4911434;29;20029;-85
2022/09/03 09:29:16;;;;;;;3.30;1.33;;;21.60;82.20;;;;;;4894638;29;20029;-85
2022/09/03 09:31:43;;;;;;;4.90;1.98;;;21.70;82.10;;;;;;4894231;29;20040;-85
2022/09/03 09:34:10;;;;;;;2.10;1.90;;;21.70;82.40;;;;;;4894080;29;20037;-85
2022/09/03 09:36:52;;;;;;;1.98;1.38;;;21.80;82.90;;;;;;4894594;29;20486;-83
2022/09/03 09:39:19;;;;;;;4.78;0.73;;;21.90;82.40;;;;;;4894416;29;20115;-85
2022/09/03 09:41:59;;;;;;;6.20;1.20;;;21.90;82.30;;;;;;4894291;29;20043;-84
2022/09/03 09:44:26;;;;;;;3.80;1.50;;;21.90;82.20;;;;;;4894330;29;20033;-84
2022/09/03 09:47:05;;;;;;;3.72;1.35;;;22.00;82.20;;;;;;4894219;29;20040;-84
2022/09/03 09:49:34;;;;;;;2.60;1.25;;;22.10;82.10;;;;;;4910779;29;20093;-85
2022/09/03 09:52:12;;;;;;;4.47;1.67;;;22.10;81.90;;;;;;4894058;29;20031;-85
2022/09/03 09:54:40;;;;;;;1.50;1.20;;;22.20;81.90;;;;;;4893871;29;20033;-86
2022/09/03 09:57:17;;;;;;;1.58;1.20;;;22.10;85.40;;;;;;4894948;29;20029;-87
2022/09/03 09:59:43;;;;;;;1.30;1.00;;;22.30;82.00;;;;;;4894341;29;20035;-85
2022/09/03 10:02:14;;;;;;;1.75;1.65;;;22.40;82.10;;;;;;4893816;29;20486;-83
2022/09/03 10:04:44;;;;;;;1.55;1.45;;;22.50;81.90;;;;;;4910762;29;20029;-84
2022/09/03 10:07:26;;;;;;;1.10;1.00;;;22.60;82.00;;;;;;4894094;29;20473;-84
2022/09/03 10:10:01;;;;;;;2.83;1.52;;;22.70;82.00;;;;;;4910799;29;20032;-84
2022/09/03 10:12:43;;;;;;;2.60;1.23;;;22.80;82.00;;;;;;4910682;29;20025;-84
2022/09/03 10:15:32;;;;;;;2.30;1.58;;;22.90;81.90;;;;;;4896812;29;20104;-84
2022/09/03 10:18:25;;;;;;;3.08;0.80;;;22.90;81.80;;;;;;4877846;29;20036;-84
2022/09/03 10:21:33;;;;;;;0.88;0.88;;;23.00;81.50;;;;;;4919790;29;20040;-85
2022/09/03 10:24:02;;;;;;;3.40;1.30;;;23.20;81.40;;;;;;4887651;29;20044;-85
2022/09/03 10:26:29;;;;;;;1.88;0.98;;;23.20;81.40;;;;;;4910538;29;20053;-85
2022/09/03 10:29:01;;;;;;;3.60;1.17;;;23.20;81.70;;;;;;4896567;29;20054;-84
2022/09/03 10:31:41;;;;;;;1.95;1.20;;;23.30;81.60;;;;;;4892165;29;20089;-84
2022/09/03 10:34:33;;;;;;;1.73;1.00;;;23.30;81.70;;;;;;4877135;29;20037;-84
2022/09/03 10:37:28;;;;;;;1.58;1.48;;;23.50;81.70;;;;;;4906535;29;20056;-84
2022/09/03 10:40:09;;;;;;;1.00;0.90;;;23.60;81.60;;;;;;4910385;29;20067;-85
2022/09/03 10:43:14;;;;;;;1.23;1.23;;;23.70;81.80;;;;;;4910939;29;20080;-85
2022/09/03 10:46:07;;;;;;;2.55;1.63;;;23.80;81.40;;;;;;4893232;29;20445;-84
2022/09/03 10:48:52;;;;;;;2.65;1.27;;;23.80;81.30;;;;;;4910909;29;20037;-85
2022/09/03 10:51:32;;;;;;;1.00;1.00;;;23.90;81.20;;;;;;4896024;29;20107;-85
2022/09/03 10:53:58;;;;;;;1.67;1.02;;;23.90;81.90;;;;;;4894625;29;20033;-85
2022/09/03 10:56:32;;;;;;;1.20;1.20;;;23.90;81.60;;;;;;4910546;29;20039;-85
2022/09/03 10:59:29;;;;;;;2.00;1.90;;;23.90;81.60;;;;;;4911337;29;20033;-85
2022/09/03 11:02:19;;;;;;;1.38;1.27;;;24.00;81.60;;;;;;4897806;29;20061;-84
2022/09/03 11:04:55;;;;;;;3.40;0.95;;;24.00;81.30;;;;;;4920354;29;20039;-85
2022/09/03 11:07:31;;;;;;;1.58;1.15;;;24.10;81.20;;;;;;4913434;29;20040;-85
2022/09/03 11:10:18;;;;;;;1.42;1.33;;;24.20;80.80;;;;;;4900519;29;20043;-84
2022/09/03 11:12:56;;;;;;;2.85;1.10;;;24.20;80.70;;;;;;4914973;29;20032;-85
2022/09/03 11:15:27;;;;;;;2.03;1.88;;;24.20;81.10;;;;;;4911936;29;20071;-85
2022/09/03 11:18:15;;;;;;;3.47;1.58;;;24.10;81.00;;;;;;4894082;29;20032;-85
2022/09/03 11:20:42;;;;;;;6.78;1.70;;;24.10;81.10;;;;;;4903003;29;20076;-85
2022/09/03 11:23:11;;;;;;;6.97;2.20;;;24.20;81.10;;;;;;4893192;29;20510;-84
2022/09/03 11:25:46;;;;;;;3.05;1.27;;;24.20;81.10;;;;;;4909813;29;20577;-85
2022/09/03 11:28:34;;;;;;;2.47;2.10;;;24.30;80.80;;;;;;4893397;29;20036;-85
2022/09/03 11:31:26;;;;;;;3.95;1.65;;;24.40;80.40;;;;;;4895415;29;20137;-85
2022/09/03 11:34:15;;;;;;;1.67;1.58;;;24.60;80.00;;;;;;4896330;29;20029;-85
2022/09/03 11:36:41;;;;;;;2.77;1.93;;;24.80;79.60;;;;;;4913390;29;20036;-85
2022/09/03 11:39:33;;;;;;;2.65;1.60;;;24.90;79.60;;;;;;4896532;29;20281;-87
2022/09/03 11:42:05;;;;;;;2.35;2.15;;;24.90;79.40;;;;;;4896171;29;20512;-85
2022/09/03 11:44:45;;;;;;;8.65;2.83;;;25.10;79.40;;;;;;4912959;29;20108;-86
2022/09/03 11:47:20;;;;;;;1.98;1.77;;;25.10;79.30;;;;;;4913530;29;20050;-86
2022/09/03 11:49:51;;;;;;;4.97;2.58;;;25.20;79.20;;;;;;4913225;29;20032;-86
2022/09/03 11:52:28;;;;;;;1.70;1.60;;;25.30;79.60;;;;;;4896152;29;20123;-86
2022/09/03 11:54:54;;;;;;;1.52;1.38;;;25.30;79.60;;;;;;4896145;29;20478;-86
2022/09/03 11:57:29;;;;;;;2.58;2.05;;;25.30;79.50;;;;;;4896302;29;20058;-86
2022/09/03 12:00:11;;;;;;;4.20;2.13;;;25.40;79.40;;;;;;4896116;29;20037;-86
2022/09/03 12:02:44;;;;;;;4.55;1.98;;;25.40;79.30;;;;;;4896161;29;20033;-86
2022/09/03 12:05:34;;;;;;;2.03;1.92;;;25.50;79.10;;;;;;4912746;29;20036;-86
2022/09/03 12:08:10;;;;;;;1.52;1.42;;;25.50;79.00;;;;;;4912898;29;20028;-86
2022/09/03 12:10:50;;;;;;;6.13;2.95;;;25.50;78.90;;;;;;4895789;29;20495;-87
2022/09/03 12:13:24;;;;;;;1.92;1.42;;;25.50;78.80;;;;;;4895828;29;20036;-87
2022/09/03 12:16:31;;;;;;;3.13;1.95;;;25.60;78.80;;;;;;4895700;29;20508;-86
2022/09/03 12:19:05;;;;;;;1.30;1.20;;;25.70;78.60;;;;;;4895736;29;20028;-87
2022/09/03 12:21:37;;;;;;;2.92;1.52;;;25.70;78.60;;;;;;4912656;29;20032;-86
2022/09/03 12:24:03;;;;;;;2.03;1.80;;;25.70;78.60;;;;;;4895626;29;20028;-86
2022/09/03 12:26:29;;;;;;;2.42;2.22;;;25.70;79.10;;;;;;4912527;29;20048;-86
2022/09/03 12:28:56;;;;;;;2.22;1.67;;;25.70;78.60;;;;;;4895232;29;20528;-87
2022/09/03 12:31:28;;;;;;;1.67;1.58;;;25.80;78.80;;;;;;4912100;29;20040;-86
2022/09/03 12:34:00;;;;;;;1.88;1.77;;;25.70;78.70;;;;;;4895621;29;20063;-86
2022/09/03 12:36:42;;;;;;;3.65;3.08;;;25.80;78.80;;;;;;4912330;29;20104;-86
2022/09/03 12:39:16;;;;;;;2.08;1.98;;;25.90;78.70;;;;;;4895042;29;20033;-86
2022/09/03 12:42:00;;;;;;;3.28;1.70;;;26.00;78.80;;;;;;4911986;29;20093;-86
2022/09/03 12:44:28;;;;;;;2.75;1.75;;;26.00;78.70;;;;;;4912611;29;20032;-86
2022/09/03 12:47:12;;;;;;;1.90;1.80;;;26.10;78.60;;;;;;4894726;29;20493;-87
2022/09/03 12:49:42;;;;;;;4.38;2.30;;;26.10;78.60;;;;;;4911997;29;20111;-87
2022/09/03 12:52:26;;;;;;;2.25;1.30;;;26.20;78.50;;;;;;4911926;29;20036;-87
2022/09/03 12:55:13;;;;;;;4.60;2.20;;;26.20;78.50;;;;;;4895502;29;20036;-87
2022/09/03 12:57:48;;;;;;;3.28;2.97;;;26.20;78.50;;;;;;4895426;29;20064;-86
2022/09/03 13:00:17;;;;;;;3.70;1.88;;;26.20;78.40;;;;;;4894586;29;20032;-87
2022/09/03 13:02:55;;;;;;;3.83;2.80;;;26.20;78.40;;;;;;4915894;29;20048;-86
2022/09/03 13:05:34;;;;;;;1.98;1.77;;;26.20;78.30;;;;;;4911687;29;20065;-87
2022/09/03 13:08:04;;;;;;;1.60;1.50;;;26.30;78.40;;;;;;4894771;29;20029;-86
2022/09/03 13:10:40;;;;;;;3.55;2.38;;;26.20;78.40;;;;;;4911759;29;20051;-86
2022/09/03 13:13:23;;;;;;;1.95;1.63;;;26.00;78.50;;;;;;4894735;29;20032;-86
2022/09/03 13:16:07;;;;;;;3.35;1.67;;;25.90;79.30;;;;;;4878951;29;20055;-86
2022/09/03 13:18:52;;;;;;;2.35;2.15;;;25.80;79.00;;;;;;4894608;29;20067;-86
2022/09/03 13:21:41;;;;;;;1.80;1.70;;;25.70;79.20;;;;;;4894495;29;20036;-86
2022/09/03 13:24:10;;;;;;;2.03;1.55;;;25.60;79.30;;;;;;4894274;29;20112;-87
2022/09/03 13:26:41;;;;;;;2.80;1.58;;;25.60;79.40;;;;;;4911358;29;20084;-86